createdAt,value
2022-09-03T08:41:55.466Z,43.8
2022-09-03T08:47:14.232Z,44.5
2022-09-03T08:52:33.134Z,44.2
2022-09-03T08:57:51.910Z,44.4
2022-09-03T09:03:10.092Z,44.7
2022-09-03T09:08:28.847Z,43.9
2022-09-03T09:13:47.319Z,43.7
2022-09-03T09:19:05.244Z,43.7
2022-09-03T09:24:24.005Z,44.6
2022-09-03T09:29:42.482Z,43.9
2022-09-03T09:35:01.249Z,44.8
2022-09-03T09:40:19.724Z,44.9
2022-09-03T09:45:37.931Z,45.2
2022-09-03T09:50:56.414Z,44.3
2022-09-03T09:56:14.912Z,44.4
2022-09-03T10:01:33.496Z,44.3
2022-09-03T10:06:51.832Z,44.3
2022-09-03T10:12:10.589Z,44.5
2022-09-03T10:17:38.394Z,44.1
2022-09-03T10:22:58.223Z,44.9
2022-09-03T10:28:16.706Z,44.3
2022-09-03T10:33:34.623Z,43.9
2022-09-03T10:38:53.106Z,44
2022-09-03T10:44:11.585Z,43.6
2022-09-03T10:49:29.841Z,43.8
2022-09-03T10:54:48.282Z,44.5
2022-09-03T11:00:06.767Z,43.7
2022-09-03T11:05:25.518Z,44.7
2022-09-03T11:10:43.732Z,44.6
2022-09-03T11:16:02.351Z,43.7
2022-09-03T11:21:20.833Z,44.7
2022-09-03T11:26:39.313Z,43.6
2022-09-03T11:31:57.830Z,44
2022-09-03T11:37:16.009Z,44.8
2022-09-03T11:42:34.782Z,44.8
2022-09-03T11:47:53.274Z,45
2022-09-03T11:53:11.503Z,44
2022-09-03T11:58:29.954Z,44.9
2022-09-03T12:03:48.437Z,44.6
2022-09-03T12:09:06.938Z,44.6
2022-09-03T12:14:25.421Z,45.1
2022-09-03T12:19:44.182Z,44.7
2022-09-03T12:25:02.670Z,45.3
2022-09-03T12:30:21.617Z,44.4
2022-09-03T12:36:10.134Z,44.6
2022-09-03T12:41:29.141Z,44.7
2022-09-03T12:46:48.293Z,44.8
2022-09-03T12:52:07.197Z,44.5
2022-09-03T12:57:25.702Z,44.4
2022-09-03T13:02:44.175Z,45.7
2022-09-03T13:08:02.929Z,45
2022-09-03T13:13:21.400Z,45
2022-09-03T13:18:39.884Z,45.3
2022-09-03T13:23:58.374Z,44.9
2022-09-03T13:29:16.850Z,44
2022-09-03T13:34:35.605Z,44.1
2022-09-03T13:39:54.093Z,44.8
2022-09-03T13:45:12.279Z,45.2
2022-09-03T13:50:30.489Z,45
2022-09-03T13:55:48.971Z,45.3
2022-09-03T14:01:07.284Z,44.7
2022-09-03T14:06:26.026Z,43.5
2022-09-03T14:11:44.503Z,43
2022-09-03T14:17:02.984Z,43.3
2022-09-03T14:22:21.742Z,42.3
2022-09-03T14:27:40.499Z,42.6
2022-09-03T14:32:58.807Z,43.3
2022-09-03T14:38:17.299Z,43.1
2022-09-03T14:43:35.502Z,43.8
2022-09-03T14:48:54.266Z,43.8
2022-09-03T14:54:13.028Z,44.4
2022-09-03T14:59:31.523Z,45.3
2022-09-03T15:04:49.726Z,44.6
2022-09-03T15:10:08.208Z,44.7
2022-09-03T15:15:26.411Z,44.7
2022-09-03T15:20:45.106Z,44.7
2022-09-03T15:26:03.838Z,46
2022-09-03T15:31:22.711Z,44.8
2022-09-03T15:36:40.583Z,45.4
2022-09-03T15:41:59.039Z,46.6
2022-09-03T15:47:23.791Z,46.2
2022-09-03T15:52:45.635Z,46
2022-09-03T15:58:04.106Z,46.1
2022-09-03T16:03:25.307Z,45.9
2022-09-03T16:08:44.360Z,46.3
2022-09-03T16:14:02.288Z,46.7
2022-09-03T16:19:20.496Z,46.9
2022-09-03T16:24:38.969Z,46.2
2022-09-03T16:29:57.732Z,45.8
2022-09-03T16:35:16.492Z,46.8
2022-09-03T16:40:35.289Z,46.1
2022-09-03T16:45:58.994Z,46.8
2022-09-03T16:51:05.493Z,47.6
2022-09-03T16:56:26.462Z,47.6
2022-09-03T17:01:45.109Z,47.6
2022-09-03T17:07:03.574Z,46.5
2022-09-03T17:12:21.901Z,46.5
2022-09-03T17:17:40.074Z,46.5
2022-09-03T17:22:58.828Z,47.4
2022-09-03T17:28:25.434Z,46.6
2022-09-03T17:33:44.016Z,46.1
2022-09-03T17:39:02.451Z,47
2022-09-03T17:44:20.653Z,45.8
2022-09-03T17:49:39.412Z,46.2
2022-09-03T17:54:59.606Z,48
2022-09-03T18:00:18.062Z,47.5
2022-09-03T18:05:36.536Z,47
2022-09-03T18:10:55.006Z,47.1
2022-09-03T18:16:13.893Z,47
2022-09-03T18:21:32.927Z,46.6
2022-09-03T18:26:51.112Z,46.6
2022-09-03T18:32:09.612Z,46.7
2022-09-03T18:37:27.813Z,46.8
2022-09-03T18:42:46.283Z,46.7
2022-09-03T18:48:20.799Z,46.2
2022-09-03T18:53:39.703Z,46.4
2022-09-03T18:58:57.618Z,47.3
2022-09-03T19:04:15.828Z,46.1
2022-09-03T19:09:34.032Z,46.1
2022-09-03T19:14:52.644Z,46.6
2022-09-03T19:20:11.414Z,46.4
2022-09-03T19:25:29.597Z,46
2022-09-03T19:30:51.559Z,46.3
2022-09-03T19:36:10.000Z,46.7
2022-09-03T19:41:28.490Z,46.6
2022-09-03T19:46:48.100Z,45.8
2022-09-03T19:52:06.851Z,46.7
2022-09-03T19:57:25.596Z,46.3
2022-09-03T20:02:44.574Z,47
2022-09-03T20:08:03.331Z,46.7
2022-09-03T20:13:22.059Z,46.8
2022-09-03T20:18:40.247Z,46.6
2022-09-03T20:23:58.706Z,46.9
2022-09-03T20:29:17.444Z,46.8
2022-09-03T20:34:36.187Z,46.9
2022-09-03T20:39:55.192Z,47.2
2022-09-03T20:45:13.096Z,47.2
2022-09-03T20:50:31.570Z,45.8
2022-09-03T20:55:50.062Z,45.9
2022-09-03T21:01:08.519Z,46.4
2022-09-03T21:06:27.347Z,45.6
2022-09-03T21:11:46.110Z,45.6
2022-09-03T21:17:04.591Z,45.5
2022-09-03T21:22:23.349Z,45.7
2022-09-03T21:27:41.850Z,45.6
2022-09-03T21:33:00.323Z,45.9
2022-09-03T21:38:18.319Z,46.7
2022-09-03T21:43:37.071Z,46
2022-09-03T21:48:56.057Z,47.1
2022-09-03T21:54:14.509Z,46.6
2022-09-03T21:59:32.950Z,46.5
2022-09-03T22:04:51.383Z,46.3
2022-09-03T22:10:09.581Z,45.6
2022-09-03T22:15:28.353Z,45.2
2022-09-03T22:20:46.849Z,45.5
2022-09-03T22:26:05.600Z,46
2022-09-03T22:31:24.388Z,45.7
2022-09-03T22:36:42.309Z,46.2
2022-09-03T22:42:02.658Z,46.1
2022-09-03T22:47:25.903Z,45.4
2022-09-03T22:52:44.399Z,45.5
2022-09-03T22:58:02.865Z,46.4
2022-09-03T23:03:21.574Z,46.1
2022-09-03T23:08:40.031Z,45.3
2022-09-03T23:13:58.527Z,45.9
2022-09-03T23:24:38.276Z,47.5
2022-09-03T23:29:56.472Z,46.4
2022-09-03T23:35:14.980Z,47.4
2022-09-03T23:40:33.452Z,47.2
2022-09-03T23:45:51.848Z,46.9
2022-09-03T23:51:10.376Z,45.5
2022-09-03T23:56:28.865Z,45.2
